Time;durP1;ratioP1;P1;durP2;ratioP2;P2;SDS_P1;SDS_P2;PMS_P1;PMS_P2;Temp;Humidity;BMP_temperature;BMP_pressure;BME280_temperature;BME280_humidity;BME280_pressure;Samples;Min_cycle;Max_cycle;Signal;HPM_P1;HPM_P2
2022/06/25 00:01:15;;;;;;;7.38;6.35;;;18.10;99.90;;;;;;4880864;29;20193;-70
2022/06/25 00:03:41;;;;;;;6.80;6.20;;;18.10;99.90;;;;;;4880474;29;20119;-70
2022/06/25 00:06:08;;;;;;;8.38;6.80;;;18.10;99.90;;;;;;4879377;29;20053;-70
2022/06/25 00:08:35;;;;;;;6.63;5.95;;;18.10;99.90;;;;;;4863820;29;20053;-70
2022/06/25 00:11:01;;;;;;;7.13;6.43;;;18.00;99.90;;;;;;4880938;29;20123;-70
2022/06/25 00:13:27;;;;;;;9.23;6.32;;;18.10;99.90;;;;;;4880670;29;20049;-70
2022/06/25 00:15:53;;;;;;;7.05;6.35;;;18.00;99.90;;;;;;4880373;29;20049;-70
2022/06/25 00:18:19;;;;;;;7.95;7.15;;;18.10;99.90;;;;;;4880356;29;20055;-70
2022/06/25 00:20:45;;;;;;;7.60;6.88;;;18.10;99.90;;;;;;4880277;29;20422;-70
2022/06/25 00:23:11;;;;;;;9.27;7.22;;;18.00;99.90;;;;;;4880138;29;20099;-69
2022/06/25 00:25:37;;;;;;;8.35;7.40;;;18.00;99.90;;;;;;4880230;29;20045;-69
2022/06/25 00:28:04;;;;;;;7.88;7.18;;;18.00;99.90;;;;;;4878993;29;20047;-69
2022/06/25 00:30:30;;;;;;;8.13;7.13;;;18.00;99.90;;;;;;4880156;29;20052;-69
2022/06/25 00:32:56;;;;;;;8.50;6.75;;;18.00;99.90;;;;;;4880144;29;20140;-69
2022/06/25 00:35:22;;;;;;;7.85;6.97;;;18.00;99.90;;;;;;4880051;29;20433;-70
2022/06/25 00:37:48;;;;;;;7.18;6.47;;;18.00;99.90;;;;;;4879985;29;20045;-70
2022/06/25 00:40:14;;;;;;;7.60;6.65;;;18.00;99.90;;;;;;4880067;29;20106;-70
2022/06/25 00:42:47;;;;;;;7.80;7.00;;;18.00;99.90;;;;;;4879984;29;20389;-70
2022/06/25 00:45:12;;;;;;;7.72;6.93;;;17.90;99.90;;;;;;4878971;29;20056;-70
2022/06/25 00:47:38;;;;;;;8.30;7.47;;;17.90;99.90;;;;;;4879940;29;20111;-70
2022/06/25 00:50:05;;;;;;;8.15;7.35;;;17.80;99.90;;;;;;4879940;29;20057;-70
2022/06/25 00:52:35;;;;;;;9.98;8.15;;;17.90;99.90;;;;;;4879618;29;20128;-70
2022/06/25 00:55:11;;;;;;;8.80;7.65;;;17.80;99.90;;;;;;4879821;29;20496;-70
2022/06/25 00:57:42;;;;;;;9.10;8.10;;;17.80;99.90;;;;;;4879779;29;20064;-70
2022/06/25 01:00:11;;;;;;;8.55;7.72;;;17.80;99.90;;;;;;4880426;29;20181;-70
2022/06/25 01:02:37;;;;;;;8.95;8.07;;;17.80;99.90;;;;;;4880527;29;20049;-69
2022/06/25 01:05:07;;;;;;;8.93;8.02;;;17.70;99.90;;;;;;4879731;29;20127;-69
2022/06/25 01:07:34;;;;;;;9.35;8.23;;;17.80;99.90;;;;;;4880277;29;20045;-69
2022/06/25 01:10:01;;;;;;;8.40;7.60;;;17.80;99.90;;;;;;4879709;29;20196;-69
2022/06/25 01:12:28;;;;;;;8.88;7.97;;;17.80;99.90;;;;;;4880269;29;20060;-70
2022/06/25 01:15:08;;;;;;;8.65;7.85;;;17.70;99.90;;;;;;4878774;29;20451;-70
2022/06/25 01:17:36;;;;;;;9.63;8.10;;;17.70;99.90;;;;;;4879134;29;20113;-69
2022/06/25 01:20:04;;;;;;;9.52;8.57;;;17.70;99.90;;;;;;4879833;29;20045;-70
2022/06/25 01:22:32;;;;;;;9.38;8.48;;;17.70;99.90;;;;;;4880121;29;20136;-70
2022/06/25 01:24:57;;;;;;;9.95;8.57;;;17.70;99.90;;;;;;4879566;29;20088;-70
2022/06/25 01:27:23;;;;;;;9.55;8.65;;;17.70;99.90;;;;;;4878401;29;20085;-70
2022/06/25 01:29:49;;;;;;;9.88;8.98;;;17.70;99.90;;;;;;4879526;29;20136;-69
2022/06/25 01:32:15;;;;;;;9.63;8.73;;;17.60;99.90;;;;;;4879516;29;20084;-70
2022/06/25 01:34:41;;;;;;;10.25;9.18;;;17.60;99.90;;;;;;4880242;29;20154;-69
2022/06/25 01:37:06;;;;;;;10.60;8.63;;;17.60;99.90;;;;;;4879508;29;20053;-69
2022/06/25 01:39:32;;;;;;;10.70;9.60;;;17.60;99.90;;;;;;4879387;29;20549;-70
2022/06/25 01:41:58;;;;;;;10.45;9.45;;;17.60;99.90;;;;;;4879682;29;20049;-70
2022/06/25 01:44:24;;;;;;;12.10;9.90;;;17.60;99.90;;;;;;4879610;29;20045;-70
2022/06/25 01:46:50;;;;;;;11.05;9.75;;;17.60;99.90;;;;;;4879364;29;20104;-70
2022/06/25 01:49:16;;;;;;;10.43;9.43;;;17.50;99.90;;;;;;4878227;29;20132;-69
2022/06/25 01:51:42;;;;;;;10.35;9.25;;;17.50;99.90;;;;;;4878187;29;20091;-70
2022/06/25 01:54:07;;;;;;;10.60;9.45;;;17.50;99.90;;;;;;4879346;29;20151;-70
2022/06/25 01:56:33;;;;;;;11.15;9.95;;;17.50;99.90;;;;;;4878133;29;20093;-70
2022/06/25 01:58:59;;;;;;;10.95;9.85;;;17.50;99.90;;;;;;4879258;29;20056;-69
2022/06/25 02:01:24;;;;;;;10.88;9.77;;;17.50;99.90;;;;;;4879268;29;20045;-70
2022/06/25 02:03:50;;;;;;;11.88;9.88;;;17.50;99.90;;;;;;4881752;29;20045;-70
2022/06/25 02:06:16;;;;;;;12.63;10.23;;;17.50;99.90;;;;;;4881685;29;20542;-70
2022/06/25 02:08:42;;;;;;;11.25;10.10;;;17.40;99.90;;;;;;4882281;29;20049;-70
2022/06/25 02:11:10;;;;;;;11.45;9.93;;;17.40;99.90;;;;;;4882953;29;20108;-70
2022/06/25 02:13:36;;;;;;;10.70;9.65;;;17.40;99.90;;;;;;4882445;29;20083;-70
2022/06/25 02:16:03;;;;;;;11.50;10.40;;;17.40;99.90;;;;;;4882489;29;20049;-69
2022/06/25 02:18:29;;;;;;;12.10;10.43;;;17.40;99.90;;;;;;4881249;29;20052;-70
2022/06/25 02:20:55;;;;;;;11.10;10.00;;;17.40;99.90;;;;;;4882329;29;20055;-70
2022/06/25 02:23:22;;;;;;;10.82;9.50;;;17.30;99.90;;;;;;4882752;29;20093;-70
2022/06/25 02:25:48;;;;;;;11.95;10.27;;;17.30;99.90;;;;;;4882252;29;20049;-70
2022/06/25 02:28:15;;;;;;;11.27;10.15;;;17.30;99.90;;;;;;4882260;29;20052;-69
2022/06/25 02:30:41;;;;;;;11.65;9.45;;;17.30;99.90;;;;;;4881968;29;20485;-70
2022/06/25 02:33:11;;;;;;;11.68;10.50;;;17.30;99.90;;;;;;4865929;29;20049;-70
2022/06/25 02:35:41;;;;;;;12.18;10.98;;;17.30;99.90;;;;;;4882080;29;20169;-70
2022/06/25 02:38:08;;;;;;;12.50;11.25;;;17.30;99.90;;;;;;4881305;29;20533;-70
2022/06/25 02:40:34;;;;;;;12.45;11.10;;;17.20;99.90;;;;;;4881956;29;20088;-70
2022/06/25 02:43:01;;;;;;;11.52;10.32;;;17.20;99.90;;;;;;4880766;29;20056;-70
2022/06/25 02:45:28;;;;;;;11.75;10.55;;;17.20;99.90;;;;;;4881978;29;20104;-70
2022/06/25 02:47:54;;;;;;;12.20;11.00;;;17.20;99.90;;;;;;4881835;29;20084;-69
2022/06/25 02:50:20;;;;;;;11.75;10.55;;;17.20;99.90;;;;;;4881818;29;20096;-69
2022/06/25 02:52:45;;;;;;;12.55;11.05;;;17.20;99.90;;;;;;4882042;29;20092;-70
2022/06/25 02:55:11;;;;;;;12.43;11.23;;;17.20;99.90;;;;;;4881484;29;20057;-70
2022/06/25 03:00:21;;;;;;;13.63;11.77;;;17.10;99.90;;;;;;4881440;29;20057;-70
2022/06/25 03:02:47;;;;;;;13.65;12.20;;;17.10;99.90;;;;;;4881889;29;20132;-70
2022/06/25 03:05:13;;;;;;;12.48;11.38;;;17.10;99.90;;;;;;4881786;29;20048;-69
2022/06/25 03:07:39;;;;;;;11.95;10.70;;;17.10;99.90;;;;;;4881447;29;20049;-69
2022/06/25 03:10:05;;;;;;;12.90;11.68;;;17.00;99.90;;;;;;4881572;29;20061;-70
2022/06/25 03:12:31;;;;;;;14.25;12.85;;;17.00;99.90;;;;;;4881498;29;20057;-70
2022/06/25 03:14:57;;;;;;;14.30;12.90;;;17.00;99.90;;;;;;4881602;29;20375;-70
2022/06/25 03:17:23;;;;;;;14.40;12.57;;;17.00;99.90;;;;;;4880942;29;20049;-70
2022/06/25 03:19:48;;;;;;;16.77;13.57;;;17.00;99.90;;;;;;4881848;29;20085;-70
2022/06/25 03:22:14;;;;;;;15.20;13.13;;;17.00;99.90;;;;;;4881512;29;20131;-69
2022/06/25 03:24:40;;;;;;;14.88;13.43;;;17.00;99.90;;;;;;4881395;29;20049;-69
2022/06/25 03:27:05;;;;;;;14.55;13.05;;;17.00;99.90;;;;;;4881162;29;20055;-69
2022/06/25 03:29:31;;;;;;;14.40;12.35;;;17.00;99.90;;;;;;4881453;29;20482;-69
2022/06/25 03:31:57;;;;;;;14.90;12.85;;;17.00;99.90;;;;;;4881112;29;20088;-69
2022/06/25 03:34:22;;;;;;;14.68;13.13;;;16.90;99.90;;;;;;4881246;29;20148;-69
2022/06/25 03:36:48;;;;;;;15.15;13.32;;;16.90;99.90;;;;;;4881049;29;20077;-70
2022/06/25 03:39:14;;;;;;;15.60;13.93;;;16.90;99.90;;;;;;4881650;29;20057;-69
2022/06/25 03:41:39;;;;;;;17.98;13.93;;;16.90;99.90;;;;;;4879989;29;20045;-69
2022/06/25 03:44:08;;;;;;;16.58;14.18;;;16.90;99.90;;;;;;4881093;29;20037;-70
2022/06/25 03:46:36;;;;;;;15.80;14.20;;;16.90;99.90;;;;;;4880870;29;20405;-70
2022/06/25 03:49:03;;;;;;;17.17;13.82;;;16.90;99.90;;;;;;4879599;29;20048;-70
2022/06/25 03:51:29;;;;;;;14.70;13.02;;;16.90;99.90;;;;;;4880769;29;20096;-70
2022/06/25 03:53:54;;;;;;;14.95;13.32;;;16.90;99.90;;;;;;4881233;29;20566;-70
2022/06/25 03:56:21;;;;;;;14.98;13.50;;;16.90;99.90;;;;;;4880673;29;20135;-69
2022/06/25 03:58:47;;;;;;;16.58;14.38;;;16.90;99.90;;;;;;4880580;29;20100;-70
2022/06/25 04:01:13;;;;;;;15.88;14.13;;;16.90;99.90;;;;;;4881287;29;20131;-69
2022/06/25 04:03:42;;;;;;;16.17;14.48;;;16.90;99.90;;;;;;4880484;29;20060;-69
2022/06/25 04:06:09;;;;;;;16.33;14.63;;;17.00;99.90;;;;;;4879794;29;20057;-69
2022/06/25 04:08:35;;;;;;;17.35;14.55;;;17.00;99.90;;;;;;4880895;29;20108;-70
2022/06/25 04:11:01;;;;;;;15.88;13.95;;;16.90;99.90;;;;;;4880814;29;20065;-70
2022/06/25 04:13:27;;;;;;;15.73;14.13;;;17.00;99.90;;;;;;4881110;29;20144;-69
2022/06/25 04:15:53;;;;;;;16.92;14.10;;;17.00;99.90;;;;;;4879640;29;20090;-70
2022/06/25 04:18:19;;;;;;;16.80;14.95;;;17.10;99.90;;;;;;4880817;29;20084;-69
2022/06/25 04:20:45;;;;;;;16.05;14.07;;;17.10;99.90;;;;;;4880226;29;20044;-70
2022/06/25 04:23:11;;;;;;;16.50;14.80;;;17.10;99.90;;;;;;4880426;29;20071;-69
2022/06/25 04:25:37;;;;;;;15.55;14.00;;;17.10;99.90;;;;;;4879800;29;20132;-69
2022/06/25 04:30:48;;;;;;;17.95;15.65;;;17.20;99.90;;;;;;4880178;29;20189;-69
2022/06/25 04:33:14;;;;;;;17.70;14.13;;;17.20;99.90;;;;;;4880095;29;20089;-70
2022/06/25 04:35:40;;;;;;;14.75;13.20;;;17.20;99.90;;;;;;4880071;29;20434;-70
2022/06/25 04:38:07;;;;;;;16.20;14.43;;;17.30;99.90;;;;;;4879981;29;20131;-69
2022/06/25 04:40:33;;;;;;;15.65;14.05;;;17.30;99.90;;;;;;4878781;29;20063;-69
2022/06/25 04:42:59;;;;;;;14.77;13.20;;;17.30;99.90;;;;;;4879965;29;20059;-69
2022/06/25 04:45:25;;;;;;;15.00;13.40;;;17.30;99.90;;;;;;4879949;29;20045;-69
2022/06/25 04:47:50;;;;;;;14.68;13.23;;;17.30;99.90;;;;;;4879263;29;20488;-70
2022/06/25 04:50:16;;;;;;;16.02;14.32;;;17.40;99.90;;;;;;4878973;29;20393;-69
2022/06/25 04:52:42;;;;;;;15.52;13.68;;;17.40;99.90;;;;;;4879958;29;20049;-69
2022/06/25 04:55:08;;;;;;;14.65;13.13;;;17.40;99.90;;;;;;4879987;29;20049;-69
2022/06/25 04:57:33;;;;;;;14.35;12.50;;;17.50;99.90;;;;;;4880378;29;20088;-69
2022/06/25 04:59:59;;;;;;;14.15;12.75;;;17.50;99.90;;;;;;4879821;29;20092;-69
2022/06/25 05:02:25;;;;;;;14.02;12.63;;;17.50;99.90;;;;;;4880307;29;20049;-69
2022/06/25 05:04:50;;;;;;;15.38;13.27;;;17.50;99.90;;;;;;4878778;29;20041;-69
2022/06/25 05:07:16;;;;;;;14.38;12.98;;;17.50;99.90;;;;;;4879512;29;20136;-69
2022/06/25 05:09:42;;;;;;;15.50;12.77;;;17.50;99.90;;;;;;4879299;29;20103;-69
2022/06/25 05:12:08;;;;;;;14.02;12.15;;;17.60;99.90;;;;;;4878761;29;20061;-69
2022/06/25 05:14:34;;;;;;;14.40;12.05;;;17.60;99.90;;;;;;4879705;29;20049;-69
2022/06/25 05:16:59;;;;;;;13.82;12.43;;;17.60;99.90;;;;;;4879911;29;20041;-69
2022/06/25 05:19:26;;;;;;;13.48;12.07;;;17.60;99.90;;;;;;4878443;29;20044;-69
2022/06/25 05:21:51;;;;;;;12.95;11.18;;;17.70;99.90;;;;;;4878733;29;20112;-69
2022/06/25 05:24:17;;;;;;;13.75;11.75;;;17.70;99.90;;;;;;4879563;29;20474;-69
2022/06/25 05:26:43;;;;;;;12.85;11.43;;;17.70;99.90;;;;;;4879629;29;20100;-70
2022/06/25 05:29:08;;;;;;;12.30;11.05;;;17.80;99.90;;;;;;4879575;29;20061;-69
2022/06/25 05:31:34;;;;;;;12.73;11.27;;;17.80;99.90;;;;;;4878875;29;20053;-69
2022/06/25 05:34:00;;;;;;;11.95;10.85;;;17.80;99.90;;;;;;4879793;29;20100;-69
2022/06/25 05:36:25;;;;;;;12.48;11.25;;;17.90;99.90;;;;;;4879513;29;20080;-70
2022/06/25 05:38:51;;;;;;;12.20;11.00;;;17.90;99.90;;;;;;4881644;29;20079;-70
2022/06/25 05:41:17;;;;;;;11.75;10.40;;;17.80;99.90;;;;;;4883051;29;20056;-70
2022/06/25 05:43:43;;;;;;;12.10;10.63;;;17.90;99.90;;;;;;4882943;29;20132;-70
2022/06/25 05:46:09;;;;;;;11.77;10.60;;;17.90;99.90;;;;;;4883021;29;20502;-70
2022/06/25 05:48:35;;;;;;;12.60;11.20;;;18.00;99.90;;;;;;4881987;29;20514;-70
2022/06/25 05:51:01;;;;;;;11.65;10.35;;;18.00;99.90;;;;;;4881653;29;20109;-70
2022/06/25 05:53:27;;;;;;;14.52;11.02;;;18.00;99.90;;;;;;4883629;29;20360;-69
2022/06/25 05:55:53;;;;;;;11.70;10.60;;;18.10;99.90;;;;;;4882809;29;20048;-70
2022/06/25 05:58:19;;;;;;;10.40;9.40;;;18.10;99.90;;;;;;4882737;29;20072;-70
2022/06/25 06:00:45;;;;;;;9.75;8.75;;;18.10;99.90;;;;;;4882955;29;20053;-70
2022/06/25 06:03:12;;;;;;;9.10;8.20;;;18.20;99.90;;;;;;4881590;29;20051;-70
2022/06/25 06:05:40;;;;;;;9.82;8.65;;;18.20;99.90;;;;;;4866420;29;20140;-70
2022/06/25 06:08:06;;;;;;;8.63;7.78;;;18.20;99.90;;;;;;4882530;29;20049;-70
2022/06/25 06:10:32;;;;;;;9.25;8.35;;;18.30;99.90;;;;;;4882511;29;20068;-70
2022/06/25 06:12:58;;;;;;;10.23;7.78;;;18.30;99.90;;;;;;4883029;29;20049;-70
2022/06/25 06:15:24;;;;;;;7.72;6.93;;;18.40;99.90;;;;;;4881282;29;20059;-70
2022/06/25 06:17:49;;;;;;;7.97;7.28;;;18.40;99.90;;;;;;4882504;29;20049;-70
2022/06/25 06:20:15;;;;;;;8.57;7.60;;;18.40;99.90;;;;;;4882400;29;20496;-70
2022/06/25 06:22:41;;;;;;;9.07;7.75;;;18.40;99.90;;;;;;4882645;29;20124;-70
2022/06/25 06:25:07;;;;;;;7.55;6.82;;;18.50;99.90;;;;;;4882943;29;20553;-70
2022/06/25 06:27:33;;;;;;;7.63;6.90;;;18.50;99.90;;;;;;4882063;29;20116;-70
2022/06/25 06:29:58;;;;;;;9.77;7.60;;;18.50;99.90;;;;;;4881916;29;20053;-69
2022/06/25 06:32:24;;;;;;;8.40;6.53;;;18.60;99.90;;;;;;4882032;29;20065;-69
2022/06/25 06:34:50;;;;;;;7.47;6.70;;;18.60;99.90;;;;;;4882114;29;20049;-70
2022/06/25 06:37:15;;;;;;;7.40;6.63;;;18.70;99.90;;;;;;4880880;29;20084;-69
2022/06/25 06:39:41;;;;;;;7.32;6.10;;;18.70;99.90;;;;;;4882524;29;20180;-70
2022/06/25 06:42:08;;;;;;;7.65;6.45;;;18.80;99.90;;;;;;4881995;29;20388;-70
2022/06/25 06:44:34;;;;;;;8.60;6.10;;;18.80;99.90;;;;;;4881881;29;20045;-69
2022/06/25 06:47:00;;;;;;;6.85;6.22;;;18.90;99.90;;;;;;4882708;29;20132;-70
2022/06/25 06:49:25;;;;;;;8.00;6.00;;;18.90;99.90;;;;;;4882033;29;20052;-70
2022/06/25 06:51:51;;;;;;;7.30;6.40;;;19.00;99.90;;;;;;4881566;29;20041;-70
2022/06/25 06:54:17;;;;;;;6.90;6.00;;;19.00;99.90;;;;;;4882330;29;20045;-70
2022/06/25 06:56:42;;;;;;;7.05;6.22;;;19.10;99.90;;;;;;4881738;29;20049;-70
2022/06/25 06:59:10;;;;;;;6.90;6.20;;;19.10;99.90;;;;;;4881686;29;20053;-75
2022/06/25 07:01:36;;;;;;;9.25;5.68;;;19.10;99.90;;;;;;4881676;29;20504;-74
2022/06/25 07:04:02;;;;;;;9.57;5.50;;;19.20;99.90;;;;;;4881760;29;20053;-75
2022/06/25 07:06:28;;;;;;;6.88;5.63;;;19.20;99.90;;;;;;4881893;29;20084;-76
2022/06/25 07:08:54;;;;;;;7.38;6.07;;;19.30;99.90;;;;;;4882238;29;20478;-77
2022/06/25 07:11:28;;;;;;;6.70;6.00;;;19.30;99.90;;;;;;4880443;29;20497;-75
2022/06/25 07:14:04;;;;;;;7.07;4.88;;;19.40;99.90;;;;;;4881442;29;20497;-74
2022/06/25 07:16:30;;;;;;;5.55;4.80;;;19.40;99.90;;;;;;4881777;29;20049;-76
2022/06/25 07:18:58;;;;;;;6.20;5.22;;;19.50;99.90;;;;;;4881246;29;20490;-82
2022/06/25 07:21:25;;;;;;;6.68;5.95;;;19.50;99.90;;;;;;4881773;29;20452;-84
2022/06/25 07:23:52;;;;;;;6.53;4.93;;;19.60;99.90;;;;;;4881424;29;20071;-84
2022/06/25 07:26:19;;;;;;;5.97;5.38;;;19.70;99.90;;;;;;4882170;29;20048;-84
2022/06/25 07:28:45;;;;;;;6.32;4.53;;;19.70;99.90;;;;;;4881596;29;20124;-81
2022/06/25 07:31:11;;;;;;;5.95;4.70;;;19.70;99.90;;;;;;4881561;29;20055;-81
2022/06/25 07:33:36;;;;;;;4.72;4.22;;;19.80;99.90;;;;;;4881189;29;20397;-79
2022/06/25 07:36:03;;;;;;;5.05;4.28;;;19.80;99.90;;;;;;4882013;29;20402;-78
2022/06/25 07:38:28;;;;;;;5.25;4.70;;;19.90;99.90;;;;;;4881666;29;20474;-77
2022/06/25 07:40:54;;;;;;;6.25;4.60;;;19.90;99.90;;;;;;4881137;29;20059;-78
2022/06/25 07:43:21;;;;;;;5.90;4.70;;;20.00;99.90;;;;;;4881212;29;20052;-79
2022/06/25 07:45:46;;;;;;;4.25;3.83;;;20.00;99.90;;;;;;4881026;29;20132;-79
2022/06/25 07:48:12;;;;;;;4.97;3.78;;;20.00;99.90;;;;;;4880934;29;20468;-80
2022/06/25 07:53:22;;;;;;;4.47;3.60;;;20.20;99.90;;;;;;4880921;29;20541;-80
2022/06/25 07:55:48;;;;;;;4.03;3.38;;;20.30;99.90;;;;;;4881362;29;20057;-79
2022/06/25 07:58:13;;;;;;;4.25;3.28;;;20.40;99.90;;;;;;4879568;29;20045;-80
2022/06/25 08:00:39;;;;;;;3.35;2.97;;;20.40;99.90;;;;;;4880091;29;20060;-80
2022/06/25 08:03:05;;;;;;;4.40;3.15;;;20.40;99.90;;;;;;4880598;29;20092;-79
2022/06/25 08:05:33;;;;;;;5.03;3.55;;;20.50;99.90;;;;;;4880697;29;20059;-79
2022/06/25 08:08:00;;;;;;;6.18;3.58;;;20.50;99.90;;;;;;4879649;29;20438;-79
2022/06/25 08:10:25;;;;;;;3.42;2.60;;;20.60;99.90;;;;;;4880382;29;20056;-80
2022/06/25 08:12:51;;;;;;;3.03;2.40;;;20.70;99.90;;;;;;4880554;29;20554;-80
2022/06/25 08:15:19;;;;;;;4.00;2.30;;;20.70;99.90;;;;;;4880490;29;20063;-81
2022/06/25 08:17:46;;;;;;;3.33;2.10;;;20.80;99.90;;;;;;4880480;29;20053;-79
2022/06/25 08:20:12;;;;;;;5.07;1.95;;;20.80;99.90;;;;;;4880207;29;20501;-78
2022/06/25 08:22:38;;;;;;;3.72;2.53;;;20.90;99.90;;;;;;4880650;29;20401;-79
2022/06/25 08:25:07;;;;;;;2.35;1.80;;;20.90;99.90;;;;;;4880303;29;20132;-79
2022/06/25 08:27:33;;;;;;;2.63;1.67;;;21.00;99.90;;;;;;4881137;29;20105;-79
2022/06/25 08:29:59;;;;;;;3.95;1.80;;;21.00;99.90;;;;;;4880320;29;20112;-79
2022/06/25 08:32:25;;;;;;;3.42;1.58;;;21.10;99.90;;;;;;4880798;29;20128;-80
2022/06/25 08:34:50;;;;;;;2.97;1.50;;;21.10;99.90;;;;;;4880071;29;20056;-79
2022/06/25 08:37:16;;;;;;;4.03;1.92;;;21.10;99.90;;;;;;4879932;29;20055;-80
2022/06/25 08:39:42;;;;;;;2.33;1.10;;;21.20;99.90;;;;;;4879922;29;20188;-78
2022/06/25 08:42:08;;;;;;;2.15;1.30;;;21.30;99.90;;;;;;4880537;29;20056;-79
2022/06/25 08:44:33;;;;;;;3.42;1.60;;;21.30;99.90;;;;;;4880317;29;20493;-80
2022/06/25 08:46:59;;;;;;;3.72;1.48;;;21.40;99.90;;;;;;4880160;29;20585;-80
2022/06/25 08:49:28;;;;;;;2.67;1.90;;;21.40;99.90;;;;;;4880019;29;20136;-83
2022/06/25 08:51:57;;;;;;;1.98;1.25;;;21.50;99.90;;;;;;4880002;29;20113;-79
2022/06/25 08:54:24;;;;;;;3.05;1.10;;;21.50;99.90;;;;;;4879871;29;20053;-75
2022/06/25 08:56:50;;;;;;;3.25;1.65;;;21.50;99.90;;;;;;4879849;29;20053;-80
2022/06/25 08:59:17;;;;;;;2.13;1.20;;;21.60;99.90;;;;;;4879941;29;20053;-80
2022/06/25 09:01:46;;;;;;;2.97;1.30;;;21.60;99.90;;;;;;4880067;29;20070;-78
2022/06/25 09:04:11;;;;;;;2.75;1.50;;;21.60;99.90;;;;;;4879876;29;20132;-76
2022/06/25 09:06:37;;;;;;;5.68;1.70;;;21.60;99.90;;;;;;4879617;29;20148;-76
2022/06/25 09:09:12;;;;;;;2.13;1.80;;;21.70;99.90;;;;;;4878854;29;20052;-75
2022/06/25 09:12:04;;;;;;;2.33;1.50;;;21.70;99.90;;;;;;4880389;29;20117;-75
2022/06/25 09:14:31;;;;;;;3.03;1.45;;;21.80;99.90;;;;;;4883222;29;20381;-75
2022/06/25 09:17:14;;;;;;;2.67;1.30;;;21.80;99.90;;;;;;4882680;29;20059;-79
2022/06/25 09:19:42;;;;;;;;;;;21.90;99.90;;;;;;4883917;29;20486;-79
2022/06/25 09:22:12;;;;;;;1.88;0.98;;;22.00;99.90;;;;;;4883584;29;19928;-76
2022/06/25 09:24:44;;;;;;;2.05;0.90;;;22.00;99.90;;;;;;4883486;29;20508;-78
2022/06/25 09:27:11;;;;;;;2.22;1.13;;;22.10;99.90;;;;;;4883375;29;20053;-76
2022/06/25 09:29:43;;;;;;;2.78;1.10;;;22.10;99.90;;;;;;4882749;29;20590;-77
2022/06/25 09:32:09;;;;;;;2.88;1.00;;;22.10;99.90;;;;;;4883707;29;20049;-76
2022/06/25 09:34:37;;;;;;;1.48;1.00;;;22.20;99.90;;;;;;4883383;29;20052;-78
2022/06/25 09:37:19;;;;;;;5.18;1.00;;;22.20;99.90;;;;;;4867281;29;20515;-79
2022/06/25 09:39:46;;;;;;;2.13;1.00;;;22.20;99.90;;;;;;4881479;29;20128;-74
2022/06/25 09:42:34;;;;;;;2.60;0.90;;;22.20;99.90;;;;;;4865596;29;20140;-73
2022/06/25 09:45:09;;;;;;;2.28;0.80;;;22.20;99.90;;;;;;4880326;29;20061;-74
2022/06/25 09:47:43;;;;;;;0.85;0.60;;;22.20;99.90;;;;;;4882401;29;20045;-72
2022/06/25 09:50:13;;;;;;;1.95;1.00;;;22.30;99.90;;;;;;4881870;29;20049;-79
2022/06/25 09:52:50;;;;;;;1.95;1.17;;;22.30;99.90;;;;;;4880473;29;20488;-73
2022/06/25 09:55:16;;;;;;;5.00;1.10;;;22.40;99.90;;;;;;4882003;29;20124;-72
2022/06/25 09:57:43;;;;;;;2.63;0.90;;;22.50;99.90;;;;;;4881994;29;20053;-72
2022/06/25 10:00:10;;;;;;;2.85;1.20;;;22.50;99.90;;;;;;4882174;29;20224;-73
2022/06/25 10:02:37;;;;;;;1.98;0.93;;;22.50;99.90;;;;;;4882337;29;20053;-73
2022/06/25 10:05:04;;;;;;;1.10;1.00;;;22.50;99.90;;;;;;4881434;29;20088;-74
2022/06/25 10:10:20;;;;;;;1.60;1.20;;;22.60;99.90;;;;;;4882346;29;20087;-73
2022/06/25 10:12:48;;;;;;;2.63;1.40;;;22.60;99.90;;;;;;4882406;29;20049;-73
2022/06/25 10:15:19;;;;;;;2.97;1.45;;;22.60;99.90;;;;;;4881260;29;20053;-73
2022/06/25 10:17:48;;;;;;;2.80;1.30;;;22.60;99.90;;;;;;4881534;29;20045;-75
2022/06/25 10:20:16;;;;;;;2.38;1.20;;;22.60;99.90;;;;;;4881239;29;20538;-71
2022/06/25 10:22:45;;;;;;;2.60;1.10;;;22.60;99.90;;;;;;4880788;29;20438;-70
2022/06/25 10:25:14;;;;;;;4.10;1.20;;;22.60;99.90;;;;;;4880500;29;20056;-72
2022/06/25 10:27:47;;;;;;;1.23;0.90;;;22.70;99.90;;;;;;4879831;29;20105;-70
2022/06/25 10:30:14;;;;;;;1.58;0.85;;;22.70;99.90;;;;;;4880745;29;20390;-71
2022/06/25 10:32:46;;;;;;;1.58;1.23;;;22.70;99.90;;;;;;4881826;29;20088;-72
2022/06/25 10:35:31;;;;;;;2.42;1.00;;;22.70;99.90;;;;;;4881202;29;20041;-71
2022/06/25 10:38:07;;;;;;;3.47;1.00;;;22.80;99.90;;;;;;4880969;29;20045;-70
2022/06/25 10:40:48;;;;;;;2.80;1.10;;;22.80;99.90;;;;;;4880755;29;20085;-73
2022/06/25 10:43:45;;;;;;;1.90;1.13;;;22.80;99.90;;;;;;4880538;29;20131;-73
2022/06/25 10:46:24;;;;;;;1.98;1.00;;;22.90;99.90;;;;;;4880654;29;20478;-73
2022/06/25 10:49:07;;;;;;;2.78;1.00;;;22.60;99.90;;;;;;4881196;29;20080;-73
2022/06/25 10:51:41;;;;;;;1.55;1.08;;;23.00;99.90;;;;;;4881022;29;20402;-74
2022/06/25 10:54:34;;;;;;;1.50;0.95;;;23.00;99.90;;;;;;4880627;29;20060;-73
2022/06/25 10:57:00;;;;;;;3.20;1.05;;;23.00;99.90;;;;;;4881300;29;20052;-72
2022/06/25 10:59:34;;;;;;;3.33;1.20;;;23.10;99.90;;;;;;4881111;29;20092;-74
2022/06/25 11:02:03;;;;;;;1.88;1.10;;;23.10;99.90;;;;;;4881045;29;20052;-75
2022/06/25 11:04:30;;;;;;;2.38;1.00;;;23.10;99.90;;;;;;4880703;29;20041;-73
2022/06/25 11:07:09;;;;;;;1.33;1.10;;;23.10;99.90;;;;;;4880200;29;20049;-72
2022/06/25 11:09:37;;;;;;;3.90;1.20;;;23.20;99.90;;;;;;4880016;29;20060;-75
2022/06/25 11:12:04;;;;;;;2.00;1.20;;;23.20;99.90;;;;;;4879796;29;20382;-74
2022/06/25 11:14:30;;;;;;;2.15;1.25;;;23.20;99.90;;;;;;4880290;29;20080;-74
2022/06/25 11:16:56;;;;;;;2.15;1.20;;;23.20;99.90;;;;;;4880577;29;20151;-72
2022/06/25 11:19:23;;;;;;;1.90;1.10;;;23.30;99.90;;;;;;4879360;29;20075;-72
2022/06/25 11:21:50;;;;;;;2.25;1.30;;;23.30;99.90;;;;;;4880703;29;20056;-73
2022/06/25 11:24:18;;;;;;;1.50;1.23;;;23.30;99.90;;;;;;4880280;29;20037;-73
2022/06/25 11:29:47;;;;;;;2.95;1.20;;;23.40;99.90;;;;;;4880418;29;20120;-70
2022/06/25 11:32:15;;;;;;;3.33;1.30;;;23.40;99.90;;;;;;4879859;29;20105;-73
2022/06/25 11:34:41;;;;;;;2.90;1.50;;;23.50;99.90;;;;;;4879891;29;20053;-74
2022/06/25 11:37:09;;;;;;;2.97;1.40;;;23.50;99.90;;;;;;4878310;29;20105;-73
2022/06/25 11:39:36;;;;;;;4.75;1.30;;;23.50;99.90;;;;;;4879938;29;20059;-77
2022/06/25 11:42:04;;;;;;;1.45;1.17;;;23.60;99.90;;;;;;4880251;29;20104;-75
2022/06/25 11:44:46;;;;;;;1.70;1.13;;;23.60;99.90;;;;;;4880566;29;20101;-75
2022/06/25 11:47:23;;;;;;;2.80;1.20;;;23.60;99.90;;;;;;4881090;29;20085;-77
2022/06/25 11:49:49;;;;;;;2.60;1.27;;;23.60;99.90;;;;;;4881856;29;20045;-77
2022/06/25 11:52:18;;;;;;;4.22;1.10;;;23.70;99.90;;;;;;4879844;29;20470;-78
2022/06/25 11:54:45;;;;;;;2.40;1.10;;;23.70;99.90;;;;;;4880905;29;20044;-75
2022/06/25 11:57:17;;;;;;;2.47;1.00;;;23.70;99.90;;;;;;4880949;29;20045;-77
2022/06/25 11:59:43;;;;;;;;;;;23.70;99.90;;;;;;4881320;29;20060;-77
2022/06/25 12:02:11;;;;;;;1.42;0.90;;;23.70;99.90;;;;;;4880799;29;19920;-77
2022/06/25 12:04:57;;;;;;;3.30;0.90;;;23.70;99.90;;;;;;4881487;29;20072;-78
2022/06/25 12:07:26;;;;;;;3.30;0.80;;;23.80;99.90;;;;;;4879527;29;20048;-78
2022/06/25 12:09:54;;;;;;;2.22;0.80;;;23.90;99.90;;;;;;4880788;29;20409;-73
2022/06/25 12:12:24;;;;;;;2.03;0.70;;;24.10;99.90;;;;;;4881466;29;20072;-74
2022/06/25 12:14:51;;;;;;;2.25;0.70;;;24.10;99.90;;;;;;4880598;29;20362;-75
2022/06/25 12:17:17;;;;;;;1.70;0.70;;;24.20;99.90;;;;;;4879633;29;20482;-75
2022/06/25 12:19:53;;;;;;;1.13;0.60;;;24.30;99.90;;;;;;4879325;29;20430;-74
2022/06/25 12:22:25;;;;;;;1.02;0.60;;;24.40;99.90;;;;;;4880756;29;20045;-73
2022/06/25 12:24:52;;;;;;;1.40;0.70;;;24.40;99.90;;;;;;4880067;29;20466;-74
2022/06/25 12:27:18;;;;;;;1.95;0.80;;;24.40;99.90;;;;;;4880123;29;20477;-74
2022/06/25 12:29:53;;;;;;;0.88;0.60;;;24.40;99.90;;;;;;4880666;29;20049;-75
2022/06/25 12:32:19;;;;;;;1.73;0.60;;;24.40;99.90;;;;;;4864210;29;20422;-74
2022/06/25 12:34:50;;;;;;;1.60;0.50;;;24.50;99.90;;;;;;4880305;29;20045;-74
2022/06/25 12:37:33;;;;;;;1.60;0.70;;;24.60;99.90;;;;;;4880803;29;20049;-75
2022/06/25 12:39:59;;;;;;;2.65;0.60;;;24.70;99.90;;;;;;4880714;29;20079;-75
2022/06/25 12:42:28;;;;;;;1.80;0.70;;;24.80;99.90;;;;;;4880220;29;20104;-75
2022/06/25 12:44:56;;;;;;;0.90;0.80;;;24.80;99.90;;;;;;4879739;29;20041;-75
2022/06/25 12:47:22;;;;;;;1.10;0.60;;;24.80;99.90;;;;;;4879175;29;20105;-75
2022/06/25 12:49:56;;;;;;;1.58;0.52;;;24.90;99.90;;;;;;4880889;29;20044;-75
2022/06/25 12:52:35;;;;;;;1.40;0.60;;;24.90;99.90;;;;;;4879844;29;20508;-76
2022/06/25 12:55:00;;;;;;;1.13;0.60;;;25.00;99.90;;;;;;4880663;29;20045;-80
2022/06/25 12:57:29;;;;;;;1.25;0.55;;;25.00;99.90;;;;;;4880862;29;20468;-82